createdAt,value
2019-03-13T00:01:28.314Z,49.75
2019-03-13T00:03:59.497Z,49.82
2019-03-13T00:06:32.004Z,50.07
2019-03-13T00:09:04.479Z,50.02
2019-03-13T00:11:35.980Z,52.05
2019-03-13T00:14:07.401Z,50.12
2019-03-13T00:16:38.604Z,50.00
2019-03-13T00:19:10.889Z,51.02
2019-03-13T00:21:42.085Z,49.17
2019-03-13T00:24:13.096Z,48.94
2019-03-13T00:26:44.372Z,49.31
2019-03-13T00:29:16.894Z,49.57
2019-03-13T00:31:48.053Z,49.23
2019-03-13T00:34:19.202Z,49.51
2019-03-13T00:36:50.369Z,49.77
2019-03-13T00:39:21.615Z,49.89
2019-03-13T00:41:52.742Z,49.64
2019-03-13T00:44:23.799Z,49.35
2019-03-13T00:46:55.118Z,49.88
2019-03-13T00:49:26.106Z,50.00
2019-03-13T00:51:57.299Z,49.88
2019-03-13T00:54:28.503Z,49.92
2019-03-13T00:56:59.678Z,50.15
2019-03-13T00:59:30.958Z,50.15
2019-03-13T01:02:06.630Z,52.71
2019-03-13T01:04:39.648Z,51.44
2019-03-13T01:07:10.915Z,50.89
2019-03-13T01:09:42.129Z,53.12
2019-03-13T01:12:13.406Z,51.62
2019-03-13T01:14:44.697Z,52.02
2019-03-13T01:17:15.933Z,51.52
2019-03-13T01:19:47.030Z,51.46
2019-03-13T01:22:18.212Z,51.47
2019-03-13T01:24:49.291Z,51.87
2019-03-13T01:27:20.388Z,51.88
2019-03-13T01:29:52.448Z,52.98
2019-03-13T01:32:40.389Z,53.83
2019-03-13T01:35:13.289Z,52.96
2019-03-13T01:37:44.414Z,53.23
2019-03-13T01:40:15.677Z,54.00
2019-03-13T01:42:47.053Z,54.87
2019-03-13T01:45:18.125Z,56.84
2019-03-13T01:47:52.724Z,55.94
2019-03-13T01:50:23.840Z,55.71
2019-03-13T01:52:55.156Z,58.27
2019-03-13T01:55:26.246Z,58.38
2019-03-13T01:57:57.567Z,59.99
2019-03-13T02:00:28.807Z,60.43
2019-03-13T02:03:00.136Z,60.98
2019-03-13T02:05:31.248Z,65.72
2019-03-13T02:08:02.475Z,68.43
2019-03-13T02:10:33.639Z,69.07
2019-03-13T02:13:04.759Z,69.94
2019-03-13T02:15:36.260Z,70.70
2019-03-13T02:18:07.439Z,71.52
2019-03-13T02:20:38.591Z,72.30
2019-03-13T02:23:09.792Z,72.76
2019-03-13T02:25:40.853Z,73.11
2019-03-13T02:28:12.235Z,73.34
2019-03-13T02:30:43.443Z,73.45
2019-03-13T02:33:14.604Z,73.57
2019-03-13T02:35:45.790Z,73.74
2019-03-13T02:38:16.922Z,74.05
2019-03-13T02:40:49.139Z,73.83
2019-03-13T02:43:20.338Z,74.12
2019-03-13T02:45:51.484Z,73.96
2019-03-13T02:48:22.723Z,74.30
2019-03-13T02:50:53.762Z,74.36
2019-03-13T02:53:24.912Z,74.37
2019-03-13T02:55:56.067Z,74.39
2019-03-13T02:58:27.348Z,74.62
2019-03-13T03:01:00.096Z,74.77
2019-03-13T03:03:32.850Z,75.17
2019-03-13T03:06:04.090Z,74.98
2019-03-13T03:08:36.602Z,75.12
2019-03-13T03:11:08.915Z,75.72
2019-03-13T03:13:40.116Z,75.12
2019-03-13T03:16:11.405Z,75.13
2019-03-13T03:18:42.475Z,75.05
2019-03-13T03:21:13.585Z,75.69
2019-03-13T03:23:45.413Z,74.77
2019-03-13T03:26:20.607Z,74.87
2019-03-13T03:28:51.872Z,75.52
2019-03-13T03:31:23.193Z,76.16
2019-03-13T03:34:03.964Z,76.75
2019-03-13T03:36:35.276Z,76.56
2019-03-13T03:39:06.885Z,76.99
2019-03-13T03:41:38.370Z,77.26
2019-03-13T03:44:09.575Z,77.34
2019-03-13T03:46:40.675Z,77.63
2019-03-13T03:49:13.408Z,78.02
2019-03-13T03:51:46.189Z,77.81
2019-03-13T03:54:17.213Z,77.76
2019-03-13T03:56:48.237Z,78.23
2019-03-13T03:59:19.313Z,78.61
2019-03-13T04:01:51.884Z,78.79
2019-03-13T04:04:22.963Z,78.62
2019-03-13T04:06:54.130Z,78.10
2019-03-13T04:09:25.166Z,78.41
2019-03-13T04:11:56.497Z,78.55
2019-03-13T04:14:27.684Z,78.75
2019-03-13T04:16:58.942Z,78.31
2019-03-13T04:19:29.992Z,78.54
2019-03-13T04:22:01.105Z,78.39
2019-03-13T04:24:32.150Z,77.98
2019-03-13T04:27:03.360Z,78.40
2019-03-13T04:29:34.501Z,76.94
2019-03-13T04:32:09.008Z,77.03
2019-03-13T04:34:41.689Z,77.13
2019-03-13T04:37:12.755Z,76.92
2019-03-13T04:39:43.799Z,77.25
2019-03-13T04:42:14.947Z,76.95
2019-03-13T04:44:46.178Z,75.99
2019-03-13T04:47:17.195Z,76.12
2019-03-13T04:49:48.331Z,76.51
2019-03-13T04:52:19.418Z,75.95
2019-03-13T04:54:50.598Z,74.90
2019-03-13T04:57:22.121Z,75.90
2019-03-13T04:59:53.226Z,76.95
2019-03-13T05:02:25.962Z,77.28
2019-03-13T05:04:58.738Z,77.45
2019-03-13T05:07:30.171Z,77.18
2019-03-13T05:10:01.638Z,77.80
2019-03-13T05:12:32.808Z,77.50
2019-03-13T05:15:05.664Z,76.98
2019-03-13T05:17:36.992Z,77.50
2019-03-13T05:20:08.189Z,77.44
2019-03-13T05:22:39.614Z,77.32
2019-03-13T05:25:11.163Z,76.37
2019-03-13T05:27:42.270Z,76.47
2019-03-13T05:30:13.542Z,75.60
2019-03-13T05:32:44.639Z,75.56
2019-03-13T05:35:15.826Z,75.20
2019-03-13T05:37:46.865Z,75.46
2019-03-13T05:40:18.112Z,75.64
2019-03-13T05:42:49.313Z,75.52
2019-03-13T05:45:20.943Z,74.87
2019-03-13T05:47:52.181Z,75.26
2019-03-13T05:50:23.247Z,74.67
2019-03-13T05:52:54.465Z,74.07
2019-03-13T05:55:25.612Z,74.96
2019-03-13T05:57:56.724Z,74.88
2019-03-13T06:00:29.185Z,74.51
2019-03-13T06:03:01.523Z,74.74
2019-03-13T06:05:32.690Z,73.83
2019-03-13T06:08:03.925Z,72.28
2019-03-13T06:10:37.296Z,70.97
2019-03-13T06:13:11.151Z,70.90
2019-03-13T06:15:42.270Z,70.11
2019-03-13T06:18:13.681Z,71.33
2019-03-13T06:20:45.082Z,70.45
2019-03-13T06:23:16.217Z,71.85
2019-03-13T06:25:47.428Z,71.03
2019-03-13T06:28:18.879Z,70.07
2019-03-13T06:30:50.032Z,69.43
2019-03-13T06:33:21.033Z,68.55
2019-03-13T06:35:52.137Z,70.08
2019-03-13T06:38:23.577Z,69.75
2019-03-13T06:40:54.759Z,69.46
2019-03-13T06:43:25.910Z,69.46
2019-03-13T06:45:57.078Z,69.59
2019-03-13T06:48:28.130Z,69.03
2019-03-13T06:50:59.426Z,70.74
2019-03-13T06:53:30.639Z,69.23
2019-03-13T06:56:01.926Z,69.96
2019-03-13T06:58:34.582Z,69.34
2019-03-13T07:01:19.291Z,68.83
2019-03-13T07:03:54.783Z,70.90
2019-03-13T07:06:27.588Z,68.82
2019-03-13T07:09:00.431Z,68.20
2019-03-13T07:11:43.911Z,68.64
2019-03-13T07:14:34.575Z,67.93
2019-03-13T07:17:16.476Z,67.33
2019-03-13T07:19:57.977Z,66.53
2019-03-13T07:22:30.760Z,65.24
2019-03-13T07:25:03.685Z,64.46
2019-03-13T07:27:39.503Z,64.37
2019-03-13T07:30:29.069Z,63.98
2019-03-13T07:33:01.824Z,65.11
2019-03-13T07:35:37.682Z,65.18
2019-03-13T07:38:10.618Z,64.35
2019-03-13T07:40:58.631Z,64.61
2019-03-13T07:43:40.391Z,64.41
2019-03-13T07:46:22.270Z,63.94
2019-03-13T07:48:55.241Z,63.69
2019-03-13T07:51:43.630Z,63.75
2019-03-13T07:54:16.469Z,63.37
2019-03-13T07:57:05.024Z,63.15
2019-03-13T07:59:43.841Z,62.19
2019-03-13T08:02:33.186Z,61.35
2019-03-13T08:05:13.870Z,61.53
2019-03-13T08:08:02.698Z,61.43
2019-03-13T08:10:35.813Z,61.20
2019-03-13T08:13:11.172Z,60.36
2019-03-13T08:16:00.573Z,59.42
2019-03-13T08:18:39.640Z,58.42
2019-03-13T08:21:23.906Z,54.36
2019-03-13T08:23:56.844Z,54.98
2019-03-13T08:26:29.458Z,54.70
2019-03-13T08:29:08.681Z,54.21
2019-03-13T08:31:53.305Z,53.47
2019-03-13T08:34:26.059Z,53.64
2019-03-13T08:37:01.601Z,53.42
2019-03-13T08:39:43.496Z,52.93
2019-03-13T08:42:19.027Z,52.29
2019-03-13T08:44:51.665Z,53.42
2019-03-13T08:47:30.336Z,52.89
2019-03-13T08:50:05.919Z,50.62
2019-03-13T08:52:38.653Z,50.83
2019-03-13T08:55:24.341Z,49.71
2019-03-13T08:57:59.886Z,48.78
2019-03-13T09:00:32.447Z,49.15
2019-03-13T09:03:17.437Z,49.52
2019-03-13T09:05:59.272Z,46.89
2019-03-13T09:08:35.608Z,46.38
2019-03-13T09:11:23.866Z,46.41
2019-03-13T09:14:05.503Z,46.37
2019-03-13T09:16:53.265Z,46.06
2019-03-13T09:19:35.054Z,45.74
2019-03-13T09:22:22.801Z,45.86
2019-03-13T09:25:10.833Z,46.49
2019-03-13T09:27:35.513Z,46.56
2019-03-13T09:30:13.536Z,45.30
2019-03-13T09:32:52.076Z,43.97
2019-03-13T09:35:40.664Z,42.62
2019-03-13T09:38:16.249Z,42.97
2019-03-13T09:41:01.200Z,42.21
2019-03-13T09:43:42.576Z,41.99
2019-03-13T09:46:30.685Z,42.02
2019-03-13T09:49:03.345Z,41.94
2019-03-13T09:51:51.486Z,41.50
2019-03-13T09:54:30.032Z,41.25
2019-03-13T09:57:14.366Z,41.76
2019-03-13T09:59:59.166Z,41.41
2019-03-13T10:02:48.146Z,41.99
2019-03-13T10:05:23.573Z,41.59
2019-03-13T10:08:12.289Z,41.40
2019-03-13T10:10:44.848Z,40.99
2019-03-13T10:13:17.629Z,41.83
2019-03-13T10:15:50.381Z,41.35
2019-03-13T10:18:29.826Z,42.01
2019-03-13T10:21:06.929Z,42.15
2019-03-13T10:23:48.773Z,41.75
2019-03-13T10:26:24.091Z,42.02
2019-03-13T10:28:56.736Z,41.36
2019-03-13T10:31:34.818Z,41.42
2019-03-13T10:34:16.660Z,40.37
2019-03-13T10:36:50.570Z,40.10
2019-03-13T10:39:41.910Z,40.21
2019-03-13T10:42:20.630Z,40.07
2019-03-13T10:44:56.288Z,41.22
2019-03-13T10:47:41.443Z,41.23
2019-03-13T10:50:15.255Z,40.75
2019-03-13T10:52:50.952Z,40.65
2019-03-13T10:55:23.668Z,40.46
2019-03-13T10:58:08.458Z,39.62
2019-03-13T11:00:57.288Z,39.98
2019-03-13T11:03:29.929Z,38.59
2019-03-13T11:06:17.660Z,37.95
2019-03-13T11:08:56.456Z,37.81
2019-03-13T11:11:32.075Z,37.46
2019-03-13T11:14:14.833Z,37.92
2019-03-13T11:16:45.346Z,35.34
2019-03-13T11:19:30.007Z,33.75
2019-03-13T11:22:08.484Z,35.78
2019-03-13T11:24:41.129Z,36.20
2019-03-13T11:27:13.746Z,37.07
2019-03-13T11:29:46.317Z,37.78
2019-03-13T11:32:19.020Z,38.55
2019-03-13T11:34:54.365Z,39.11
2019-03-13T11:37:43.171Z,37.20
2019-03-13T11:40:24.985Z,36.17
2019-03-13T11:43:10.291Z,36.46
2019-03-13T11:46:01.271Z,36.40
2019-03-13T11:48:34.111Z,35.98
2019-03-13T11:51:06.647Z,35.91
2019-03-13T11:53:39.306Z,36.43
2019-03-13T11:56:12.010Z,37.10
2019-03-13T11:58:59.760Z,37.88
2019-03-13T12:01:44.942Z,37.96
2019-03-13T12:04:25.063Z,38.27
2019-03-13T12:07:03.712Z,37.07
2019-03-13T12:09:53.800Z,37.63
2019-03-13T12:12:26.487Z,37.32
2019-03-13T12:15:18.357Z,37.16
2019-03-13T12:17:50.967Z,36.99
2019-03-13T12:20:23.777Z,36.14
2019-03-13T12:22:58.819Z,34.88
2019-03-13T12:25:35.662Z,34.72
2019-03-13T12:28:08.275Z,34.13
2019-03-13T12:30:43.870Z,34.45
2019-03-13T12:33:16.783Z,34.36
2019-03-13T12:35:58.445Z,34.92
2019-03-13T12:38:47.281Z,35.23
2019-03-13T12:41:40.497Z,35.43
2019-03-13T12:44:16.174Z,35.42
2019-03-13T12:47:08.679Z,35.79
2019-03-13T12:49:57.497Z,35.62
2019-03-13T12:52:46.162Z,35.93
2019-03-13T12:55:23.552Z,36.57
2019-03-13T12:58:14.700Z,36.45
2019-03-13T13:00:47.352Z,36.35
2019-03-13T13:03:20.076Z,36.53
2019-03-13T13:05:55.524Z,36.35
2019-03-13T13:08:34.204Z,35.64
2019-03-13T13:11:09.720Z,35.33
2019-03-13T13:13:47.991Z,35.25
2019-03-13T13:16:26.064Z,35.06
2019-03-13T13:18:57.162Z,35.16
2019-03-13T13:21:28.223Z,35.08
2019-03-13T13:23:59.509Z,35.82
2019-03-13T13:26:30.595Z,36.35
2019-03-13T13:29:08.903Z,34.89
2019-03-13T13:31:40.020Z,35.26
2019-03-13T13:34:10.965Z,35.89
2019-03-13T13:36:42.145Z,35.83
2019-03-13T13:39:13.144Z,35.35
2019-03-13T13:41:44.030Z,35.02
2019-03-13T13:44:14.942Z,34.91
2019-03-13T13:46:46.034Z,35.05
2019-03-13T13:49:17.123Z,35.47
2019-03-13T13:51:48.123Z,35.06
2019-03-13T13:54:19.306Z,35.54
2019-03-13T13:56:50.233Z,34.87
2019-03-13T13:59:21.281Z,35.55
2019-03-13T14:01:52.169Z,35.28
2019-03-13T14:04:23.426Z,34.97
2019-03-13T14:06:54.424Z,35.28
2019-03-13T14:09:25.630Z,36.81
2019-03-13T14:11:56.533Z,34.27
2019-03-13T14:14:27.587Z,33.39
2019-03-13T14:16:58.520Z,33.96
2019-03-13T14:19:29.501Z,33.86
2019-03-13T14:22:00.573Z,34.87
2019-03-13T14:24:31.689Z,34.51
2019-03-13T14:27:13.961Z,34.92
2019-03-13T14:29:35.730Z,34.78
2019-03-13T14:32:07.666Z,34.82
2019-03-13T14:34:38.842Z,34.89
2019-03-13T14:37:09.819Z,34.69
2019-03-13T14:39:40.861Z,35.00
2019-03-13T14:42:11.804Z,34.63
2019-03-13T14:44:42.939Z,34.78
2019-03-13T14:47:13.831Z,35.06
2019-03-13T14:49:44.965Z,35.03
2019-03-13T14:52:15.981Z,35.22
2019-03-13T14:54:47.058Z,35.12
2019-03-13T14:57:18.038Z,35.43
2019-03-13T14:59:49.226Z,35.02
2019-03-13T15:02:20.177Z,35.20
2019-03-13T15:04:51.260Z,35.38
2019-03-13T15:07:22.269Z,35.51
2019-03-13T15:09:53.636Z,35.36
2019-03-13T15:12:25.611Z,35.65
2019-03-13T15:14:56.746Z,36.06
2019-03-13T15:17:27.682Z,35.96
2019-03-13T15:19:58.635Z,35.77
2019-03-13T15:22:29.792Z,36.60
2019-03-13T15:25:00.828Z,35.81
2019-03-13T15:27:31.876Z,36.07
2019-03-13T15:30:02.963Z,36.22
2019-03-13T15:32:35.464Z,36.43
2019-03-13T15:35:09.127Z,36.10
2019-03-13T15:37:40.084Z,36.54
2019-03-13T15:40:14.445Z,36.87
2019-03-13T15:42:45.751Z,36.80
2019-03-13T15:45:28.259Z,37.34
2019-03-13T15:47:59.367Z,37.14
2019-03-13T15:50:32.354Z,37.19
2019-03-13T15:53:03.451Z,37.56
2019-03-13T15:55:34.702Z,37.70
2019-03-13T15:58:05.738Z,37.38
2019-03-13T16:00:36.901Z,38.11
2019-03-13T16:03:08.096Z,37.86
2019-03-13T16:05:40.815Z,37.88
2019-03-13T16:08:11.948Z,38.34
2019-03-13T16:10:43.195Z,38.60
2019-03-13T16:13:14.475Z,39.43
2019-03-13T16:15:46.306Z,39.70
2019-03-13T16:18:17.554Z,40.09
2019-03-13T16:20:48.783Z,39.51
2019-03-13T16:23:20.081Z,41.74
2019-03-13T16:25:51.288Z,42.08
2019-03-13T16:28:22.484Z,40.71
2019-03-13T16:30:55.757Z,41.06
2019-03-13T16:33:27.263Z,41.73
2019-03-13T16:35:58.383Z,41.83
2019-03-13T16:38:30.004Z,41.78
2019-03-13T16:41:04.701Z,41.66
2019-03-13T16:43:35.853Z,42.31
2019-03-13T16:46:08.109Z,44.09
2019-03-13T16:48:47.210Z,41.95
2019-03-13T16:51:22.064Z,42.26
2019-03-13T16:53:53.506Z,42.24
2019-03-13T16:56:26.350Z,42.51
2019-03-13T16:58:57.411Z,42.81
2019-03-13T17:01:30.252Z,43.79
2019-03-13T17:04:01.325Z,43.40
2019-03-13T17:06:32.622Z,43.91
2019-03-13T17:09:04.403Z,44.00
2019-03-13T17:11:37.363Z,44.10
2019-03-13T17:14:08.644Z,44.96
2019-03-13T17:16:39.781Z,43.94
2019-03-13T17:19:10.922Z,43.69
2019-03-13T17:21:42.273Z,44.81
2019-03-13T17:24:13.380Z,44.67
2019-03-13T17:26:44.554Z,44.30
2019-03-13T17:29:17.152Z,45.31
2019-03-13T17:31:48.279Z,45.62
2019-03-13T17:34:19.459Z,44.12
2019-03-13T17:36:51.183Z,44.70
2019-03-13T17:39:22.376Z,44.37
2019-03-13T17:41:53.572Z,44.52
2019-03-13T17:44:24.540Z,44.32
2019-03-13T17:46:55.877Z,44.62
2019-03-13T17:49:26.969Z,44.62
2019-03-13T17:51:58.259Z,45.01
2019-03-13T17:54:31.979Z,45.56
2019-03-13T17:57:03.276Z,45.32
2019-03-13T17:59:34.392Z,45.66
2019-03-13T18:02:05.669Z,46.57
2019-03-13T18:04:36.724Z,45.21
2019-03-13T18:07:07.960Z,44.58
2019-03-13T18:09:39.213Z,45.44
2019-03-13T18:12:11.384Z,46.83
2019-03-13T18:14:42.700Z,46.55
2019-03-13T18:17:13.817Z,45.41
2019-03-13T18:19:44.982Z,45.89
2019-03-13T18:22:18.799Z,46.40
2019-03-13T18:24:49.925Z,48.26
2019-03-13T18:27:21.097Z,46.88
2019-03-13T18:29:52.219Z,47.49
2019-03-13T18:32:23.407Z,48.15
2019-03-13T18:34:54.748Z,48.89
2019-03-13T18:37:26.356Z,49.50
2019-03-13T18:39:57.527Z,50.70
2019-03-13T18:42:28.876Z,51.40
2019-03-13T18:45:00.421Z,51.63
2019-03-13T18:47:35.028Z,51.83
2019-03-13T18:50:12.912Z,52.27
2019-03-13T18:52:44.500Z,51.73
2019-03-13T18:55:18.529Z,52.81
2019-03-13T18:57:50.887Z,52.97
2019-03-13T19:00:30.530Z,54.91
2019-03-13T19:03:01.970Z,54.28
2019-03-13T19:05:37.955Z,54.85
2019-03-13T19:08:11.121Z,55.76
2019-03-13T19:10:42.365Z,56.49
2019-03-13T19:13:13.687Z,55.41
2019-03-13T19:15:46.417Z,55.42
2019-03-13T19:18:17.718Z,55.46
2019-03-13T19:20:58.882Z,55.30
2019-03-13T19:23:30.236Z,56.16
2019-03-13T19:26:01.454Z,55.35
2019-03-13T19:28:32.829Z,57.82
2019-03-13T19:31:04.075Z,56.64
2019-03-13T19:33:35.167Z,56.45
2019-03-13T19:36:06.409Z,56.64
2019-03-13T19:38:37.562Z,58.84
2019-03-13T19:41:09.262Z,58.29
2019-03-13T19:43:40.579Z,57.50
2019-03-13T19:46:11.674Z,57.64
2019-03-13T19:48:42.925Z,57.89
2019-03-13T19:51:14.017Z,58.09
2019-03-13T19:53:45.246Z,57.24
2019-03-13T19:56:16.304Z,57.08
2019-03-13T19:58:47.657Z,57.57
2019-03-13T20:01:18.938Z,57.77
2019-03-13T20:03:55.235Z,58.13
2019-03-13T20:06:23.098Z,58.30
2019-03-13T20:08:54.351Z,58.65
2019-03-13T20:11:25.525Z,58.83
2019-03-13T20:13:56.857Z,58.15
2019-03-13T20:16:30.623Z,59.12
2019-03-13T20:19:01.906Z,59.03
2019-03-13T20:21:33.172Z,60.01
2019-03-13T20:24:04.405Z,62.95
2019-03-13T20:26:35.491Z,59.50
2019-03-13T20:29:06.666Z,59.25
2019-03-13T20:31:38.041Z,59.13
2019-03-13T20:34:09.156Z,58.94
2019-03-13T20:36:40.260Z,59.60
2019-03-13T20:39:11.443Z,59.45
2019-03-13T20:41:42.717Z,60.01
2019-03-13T20:44:13.931Z,58.76
2019-03-13T20:46:45.129Z,59.91
2019-03-13T20:49:16.224Z,60.29
2019-03-13T20:51:47.370Z,60.29
2019-03-13T20:54:18.498Z,60.24
2019-03-13T20:56:49.718Z,60.20
2019-03-13T20:59:21.033Z,60.02
2019-03-13T21:01:52.107Z,61.12
2019-03-13T21:04:23.278Z,60.37
2019-03-13T21:06:55.423Z,60.56
2019-03-13T21:09:26.585Z,60.39
2019-03-13T21:11:57.871Z,61.74
2019-03-13T21:14:29.076Z,61.58
2019-03-13T21:17:00.187Z,62.05
2019-03-13T21:19:31.381Z,61.49
2019-03-13T21:22:04.605Z,61.06
2019-03-13T21:24:35.577Z,60.74
2019-03-13T21:27:07.747Z,61.17
2019-03-13T21:29:38.903Z,61.71
2019-03-13T21:32:10.094Z,60.20
2019-03-13T21:34:41.431Z,61.26
2019-03-13T21:37:12.502Z,62.13
2019-03-13T21:39:43.714Z,62.28
2019-03-13T21:42:14.947Z,62.94
2019-03-13T21:44:46.139Z,63.33
2019-03-13T21:47:17.213Z,64.24
2019-03-13T21:49:48.338Z,63.46
2019-03-13T21:52:19.492Z,63.78
2019-03-13T21:54:52.251Z,61.83
2019-03-13T21:57:27.005Z,61.66
2019-03-13T21:59:58.216Z,61.61
2019-03-13T22:02:33.086Z,61.49
2019-03-13T22:05:02.341Z,62.30
2019-03-13T22:07:33.651Z,62.88
2019-03-13T22:10:07.233Z,62.95
2019-03-13T22:12:38.678Z,62.45
2019-03-13T22:15:15.308Z,62.46
2019-03-13T22:17:46.458Z,66.54
2019-03-13T22:20:18.265Z,64.62
2019-03-13T22:22:49.512Z,63.58
2019-03-13T22:25:20.810Z,63.83
2019-03-13T22:27:52.051Z,64.13
2019-03-13T22:30:28.634Z,65.34
2019-03-13T22:32:58.293Z,64.39
2019-03-13T22:35:30.400Z,64.80
2019-03-13T22:38:01.431Z,64.92
2019-03-13T22:40:32.618Z,64.44
2019-03-13T22:43:03.727Z,63.88
2019-03-13T22:45:34.879Z,64.31
2019-03-13T22:48:05.898Z,65.86
2019-03-13T22:50:37.187Z,65.58
2019-03-13T22:53:08.324Z,65.56
2019-03-13T22:55:41.045Z,65.58
2019-03-13T22:58:12.336Z,65.21
2019-03-13T23:00:54.281Z,65.67
2019-03-13T23:03:28.218Z,65.62
2019-03-13T23:05:59.630Z,65.58
2019-03-13T23:08:31.298Z,65.23
2019-03-13T23:11:02.413Z,64.92
2019-03-13T23:13:35.162Z,66.45
2019-03-13T23:16:06.195Z,66.72
2019-03-13T23:18:37.292Z,66.82
2019-03-13T23:21:08.417Z,65.75
2019-03-13T23:23:39.526Z,65.71
2019-03-13T23:26:10.694Z,65.07
2019-03-13T23:28:41.973Z,66.17
2019-03-13T23:31:13.106Z,65.83
2019-03-13T23:33:44.180Z,66.45
2019-03-13T23:36:15.545Z,66.68
2019-03-13T23:38:46.850Z,66.55
2019-03-13T23:41:18.059Z,66.76
2019-03-13T23:43:49.304Z,66.50
2019-03-13T23:46:20.510Z,66.35
2019-03-13T23:48:51.653Z,65.95
2019-03-13T23:51:22.738Z,66.53
2019-03-13T23:53:53.821Z,66.73
2019-03-13T23:56:25.021Z,66.71
2019-03-13T23:58:56.014Z,66.26
